LavenderCAM.net
Leatherhead Weather
 
Leatherhead Weather
 
 





Aviation weather for

London Heathrow (EGLL) and London Gatwick (EGKK)



London Heathrow (EGLL) METAR / Surface Actual
London / Heathrow Airport, United Kingdom (EGLL) 51-29N 000-27W 0M
May 23, 2022 - 10:50 AM EDT / 2022.05.23 1450 UTC
Wind: from the W (270 degrees) at 10 MPH (9 KT) (direction variable):0
Visibility: greater than 7 mile(s):0
Temperature: 64 F (18 C)
Dew Point: 44 F (7 C)
Relative Humidity: 48%
Pressure (altimeter): 29.53 in. Hg (1000 hPa)
ob: EGLL 231450Z AUTO 27009KT 250V320 9999 NCD 18/07 Q1000 NOSIG
cycle: 15
London Heathrow (EGLL) TAF / Forecast
2022/05/23 12:09
TAF EGLL 231057Z 2312/2418 25007KT 9999 SCT030 PROB30 
      TEMPO 2312/2315 7000 -RA 
      TEMPO 2317/2410 7000 SHRA PROB30 
      TEMPO 2323/2410 4000 +SHRA BKN012 
      TEMPO 2410/2418 7000 SHRA BKN014CB PROB30 
      TEMPO 2410/2417 3000 +TSRA


London Gatwick (EGKK) METAR / Surface Actual
London / Gatwick Airport, United Kingdom (EGKK) 51-09N 000-11W 0M
May 23, 2022 - 10:50 AM EDT / 2022.05.23 1450 UTC
Wind: from the SW (230 degrees) at 7 MPH (6 KT):0
Visibility: greater than 7 mile(s):0
Sky conditions: mostly clear
Temperature: 60 F (16 C)
Dew Point: 51 F (11 C)
Relative Humidity: 72%
Pressure (altimeter): 29.56 in. Hg (1001 hPa)
ob: EGKK 231450Z 23006KT 9999 FEW026 16/11 Q1001
cycle: 15
London Gatwick (EGKK) TAF / Forecast
2022/05/23 12:09
TAF EGKK 231053Z 2312/2418 27005KT 9999 SCT025 PROB30 
      TEMPO 2312/2314 8000 -RA PROB30 
      TEMPO 2318/2406 6000 SHRA PROB30 
      TEMPO 2406/2410 4000 +SHRA BKN014CB 
      TEMPO 2410/2418 3000 +SHRA BKN014CB PROB30 
      TEMPO 2410/2416 +TSRAGS